EmailTwitter


Observations de surface / Québec / CYSC

Régions: Québec | Canada | États-Unis | Europe | France | UK | Elsewhere
Station
Affichage
Infos & localisation pour CYSC | Aide pour décoder les METARs

Observations prises le 2017-06-27 à 15H00 UTC à SHERBROOKE, QB (CYSC)

Etat du ciel: quelques nuages.

Température: 18.0 Celsius

Point de rosée: 11.0 Celsius

Humidité relative: 64%

Vents: Ouest-sud-ouest à 9 km/h ou 5 noeuds.

Pression au niveau moyen de la mer: 101.44 kilopascals.

Calage altimétrique: 101.42 kilopascals ou 29.95 pouces de mercure.

Visibilité horizontale: 9.00 milles terrestres ou 14.40 kilomètres.

Observation METAR:

CYSC 271500Z AUTO 25005KT 140V270 9SM FEW033 18/11 A2995 RMK SLP144 DENSITY ALT

1300FT=